Time;durP1;ratioP1;P1;durP2;ratioP2;P2;SDS_P1;SDS_P2;PMS_P1;PMS_P2;Temp;Humidity;BMP_temperature;BMP_pressure;BME280_temperature;BME280_humidity;BME280_pressure;Samples;Min_cycle;Max_cycle;Signal;HPM_P1;HPM_P2
2021/11/21 00:01:56;;;;;;;0.82;0.50;;;20.80;54.10;;;;;;4925926;29;20028;-43
2021/11/21 00:04:22;;;;;;;1.15;0.70;;;20.80;54.10;;;;;;4925436;29;20080;-42
2021/11/21 00:06:48;;;;;;;0.77;0.50;;;20.80;54.10;;;;;;4925666;29;20033;-42
2021/11/21 00:09:14;;;;;;;0.68;0.55;;;20.90;54.20;;;;;;4925671;29;20032;-42
2021/11/21 00:11:41;;;;;;;2.63;0.57;;;20.90;54.10;;;;;;4945800;29;20035;-42
2021/11/21 00:14:07;;;;;;;1.38;0.60;;;20.80;54.40;;;;;;4963572;28;20091;-42
2021/11/21 00:16:34;;;;;;;1.15;0.60;;;20.80;54.30;;;;;;4963816;29;20078;-42
2021/11/21 00:19:00;;;;;;;0.52;0.40;;;20.80;54.20;;;;;;4961366;29;20051;-43
2021/11/21 00:21:26;;;;;;;0.90;0.57;;;20.80;54.10;;;;;;4958370;29;20124;-44
2021/11/21 00:23:52;;;;;;;0.55;0.40;;;20.80;54.20;;;;;;4927372;29;20362;-43
2021/11/21 00:26:18;;;;;;;0.40;0.40;;;20.80;54.10;;;;;;4944715;29;20027;-41
2021/11/21 00:28:44;;;;;;;0.68;0.50;;;20.90;54.00;;;;;;4944721;29;20032;-42
2021/11/21 00:31:11;;;;;;;0.98;0.50;;;20.90;54.10;;;;;;4941957;29;20039;-42
2021/11/21 00:33:37;;;;;;;0.50;0.50;;;20.90;54.20;;;;;;4942861;29;20027;-41
2021/11/21 00:36:03;;;;;;;1.13;0.40;;;20.90;54.20;;;;;;4943721;29;20031;-42
2021/11/21 00:38:30;;;;;;;1.65;0.55;;;20.80;54.10;;;;;;4946475;29;20028;-43
2021/11/21 00:40:56;;;;;;;1.85;0.50;;;20.80;54.20;;;;;;4952761;29;20038;-42
2021/11/21 00:43:22;;;;;;;0.47;0.40;;;20.80;54.10;;;;;;4963660;29;20031;-41
2021/11/21 00:45:48;;;;;;;1.02;0.50;;;20.80;54.00;;;;;;4963833;29;20438;-42
2021/11/21 00:48:20;;;;;;;0.60;0.57;;;20.90;54.10;;;;;;4961007;29;20031;-41
2021/11/21 00:50:47;;;;;;;0.95;0.60;;;20.90;54.10;;;;;;4944381;29;20298;-41
2021/11/21 00:53:13;;;;;;;1.25;0.60;;;20.90;54.10;;;;;;4944505;29;20028;-41
2021/11/21 00:55:43;;;;;;;1.00;0.57;;;20.90;54.10;;;;;;4944509;29;20099;-41
2021/11/21 00:58:11;;;;;;;0.88;0.40;;;20.90;54.10;;;;;;4941762;29;20031;-41
2021/11/21 01:00:38;;;;;;;1.10;0.55;;;20.80;54.00;;;;;;4946197;29;20080;-41
2021/11/21 01:03:06;;;;;;;1.23;0.70;;;20.80;54.00;;;;;;4945173;29;20041;-41
2021/11/21 01:05:32;;;;;;;0.95;0.57;;;20.80;53.90;;;;;;4937484;29;20038;-41
2021/11/21 01:07:58;;;;;;;1.02;0.60;;;20.90;53.90;;;;;;4948859;29;20131;-41
2021/11/21 01:10:24;;;;;;;0.90;0.60;;;20.90;54.00;;;;;;4947615;29;20032;-41
2021/11/21 01:12:53;;;;;;;0.75;0.60;;;20.90;54.00;;;;;;4947192;29;20047;-42
2021/11/21 01:15:20;;;;;;;0.63;0.57;;;20.90;54.10;;;;;;4947071;29;20040;-42
2021/11/21 01:17:47;;;;;;;0.60;0.60;;;20.90;53.90;;;;;;4947257;29;20027;-41
2021/11/21 01:20:13;;;;;;;1.33;0.70;;;20.80;53.90;;;;;;4947446;29;20028;-42
2021/11/21 01:22:39;;;;;;;1.10;0.65;;;20.80;53.90;;;;;;4947452;29;20061;-42
2021/11/21 01:25:07;;;;;;;0.90;0.63;;;20.80;53.80;;;;;;4947359;29;20038;-42
2021/11/21 01:27:33;;;;;;;0.77;0.60;;;20.90;53.90;;;;;;4947441;29;20384;-42
2021/11/21 01:29:59;;;;;;;0.70;0.60;;;20.90;53.80;;;;;;4947022;29;20032;-43
2021/11/21 01:32:28;;;;;;;0.90;0.60;;;20.90;54.00;;;;;;4947520;29;20027;-42
2021/11/21 01:34:54;;;;;;;1.33;0.75;;;20.90;53.90;;;;;;4946772;29;20039;-42
2021/11/21 01:37:20;;;;;;;0.90;0.57;;;20.90;53.90;;;;;;4946932;29;20035;-41
2021/11/21 01:39:46;;;;;;;1.33;0.70;;;20.80;53.90;;;;;;4947069;29;20151;-42
2021/11/21 01:42:12;;;;;;;0.90;0.70;;;20.80;53.80;;;;;;4947090;29;20027;-42
2021/11/21 01:44:38;;;;;;;1.02;0.70;;;20.90;53.80;;;;;;4946812;29;20764;-42
2021/11/21 01:47:06;;;;;;;0.95;0.57;;;20.90;53.80;;;;;;4946841;29;20042;-42
2021/11/21 01:49:33;;;;;;;0.75;0.60;;;20.90;53.90;;;;;;4946249;29;20453;-41
2021/11/21 01:51:59;;;;;;;1.10;0.73;;;20.90;53.90;;;;;;4947066;29;20051;-42
2021/11/21 01:54:25;;;;;;;0.85;0.73;;;20.90;54.00;;;;;;4946759;29;20048;-42
2021/11/21 01:56:51;;;;;;;1.38;0.73;;;20.90;53.90;;;;;;4944558;29;20016;-42
2021/11/21 01:59:17;;;;;;;1.67;0.70;;;20.90;54.00;;;;;;4944278;29;20126;-44
2021/11/21 02:01:44;;;;;;;1.40;0.60;;;20.90;54.00;;;;;;4946763;29;20039;-42
2021/11/21 02:04:10;;;;;;;1.17;0.93;;;20.90;53.90;;;;;;4942670;29;20087;-43
2021/11/21 02:06:36;;;;;;;1.37;0.80;;;20.90;53.70;;;;;;4946209;29;20056;-42
2021/11/21 02:09:03;;;;;;;1.02;0.82;;;20.90;53.80;;;;;;4937600;29;20032;-42
2021/11/21 02:11:29;;;;;;;0.95;0.75;;;20.90;53.90;;;;;;4927366;29;20108;-42
2021/11/21 02:13:55;;;;;;;0.95;0.65;;;20.90;53.50;;;;;;4927123;29;20032;-42
2021/11/21 02:16:22;;;;;;;1.63;0.70;;;20.90;53.40;;;;;;4935837;29;20036;-42
2021/11/21 02:18:49;;;;;;;0.93;0.80;;;20.80;53.30;;;;;;4945241;29;20091;-43
2021/11/21 02:21:16;;;;;;;0.50;0.50;;;20.80;53.70;;;;;;4945089;29;20063;-42
2021/11/21 02:23:42;;;;;;;1.58;1.10;;;20.90;53.70;;;;;;4945924;29;20035;-43
2021/11/21 02:26:08;;;;;;;1.15;0.75;;;20.90;53.70;;;;;;4946171;29;20030;-42
2021/11/21 02:28:35;;;;;;;1.05;0.80;;;20.90;53.80;;;;;;4943131;29;20043;-42
2021/11/21 02:31:01;;;;;;;0.88;0.63;;;20.90;53.50;;;;;;4940338;29;20040;-42
2021/11/21 02:33:27;;;;;;;0.70;0.65;;;20.90;53.40;;;;;;4953542;29;20201;-42
2021/11/21 02:35:56;;;;;;;1.75;1.00;;;20.80;53.50;;;;;;4950113;29;20035;-44
2021/11/21 02:38:23;;;;;;;0.95;0.70;;;20.90;53.80;;;;;;4941699;29;20047;-42
2021/11/21 02:40:50;;;;;;;2.47;0.70;;;20.90;53.80;;;;;;4953715;29;20039;-42
2021/11/21 02:43:17;;;;;;;1.35;0.80;;;20.90;53.80;;;;;;4939951;29;20036;-42
2021/11/21 02:45:43;;;;;;;;;;;20.90;53.50;;;;;;4949720;29;20135;-43
2021/11/21 02:48:10;;;;;;;1.90;0.82;;;20.90;53.40;;;;;;4927454;29;19917;-42
2021/11/21 02:50:36;;;;;;;0.80;0.70;;;20.80;53.40;;;;;;4933816;29;20030;-42
2021/11/21 02:53:02;;;;;;;1.13;0.80;;;20.80;53.50;;;;;;4947737;29;20035;-42
2021/11/21 02:55:30;;;;;;;0.85;0.70;;;20.90;53.80;;;;;;4945195;29;20039;-43
2021/11/21 02:57:56;;;;;;;1.38;0.85;;;20.90;53.70;;;;;;4945235;29;20053;-43
2021/11/21 03:00:23;;;;;;;1.23;0.80;;;20.90;53.80;;;;;;4947531;29;20031;-43
2021/11/21 03:02:49;;;;;;;1.08;0.70;;;20.90;53.60;;;;;;4940969;29;20048;-42
2021/11/21 03:05:17;;;;;;;0.90;0.50;;;20.90;53.40;;;;;;4936509;29;20048;-43
2021/11/21 03:07:43;;;;;;;1.10;0.70;;;20.80;53.40;;;;;;4945056;29;20096;-42
2021/11/21 03:10:12;;;;;;;1.25;0.80;;;20.80;53.50;;;;;;4944880;29;20079;-44
2021/11/21 03:12:38;;;;;;;1.35;0.70;;;20.80;53.80;;;;;;4945413;29;20032;-43
2021/11/21 03:15:05;;;;;;;0.90;0.70;;;20.90;53.80;;;;;;4944591;29;20694;-42
2021/11/21 03:17:31;;;;;;;0.98;0.75;;;20.90;54.40;;;;;;4945266;29;20028;-42
2021/11/21 03:19:57;;;;;;;0.80;0.80;;;20.90;53.50;;;;;;4944276;29;20054;-42
2021/11/21 03:22:23;;;;;;;1.08;0.70;;;20.90;53.50;;;;;;4945222;29;20055;-42
2021/11/21 03:24:49;;;;;;;0.98;0.75;;;20.80;53.40;;;;;;4945275;29;20723;-42
2021/11/21 03:27:15;;;;;;;1.05;0.68;;;20.70;53.50;;;;;;4944928;29;20028;-43
2021/11/21 03:29:41;;;;;;;1.77;1.00;;;20.80;53.80;;;;;;4945070;29;20112;-44
2021/11/21 03:32:08;;;;;;;1.42;0.77;;;20.90;53.90;;;;;;4955736;29;20027;-42
2021/11/21 03:34:37;;;;;;;1.60;0.80;;;20.90;53.90;;;;;;4952335;29;20484;-41
2021/11/21 03:37:05;;;;;;;1.20;0.85;;;20.90;53.50;;;;;;4960417;29;20063;-42
2021/11/21 03:39:31;;;;;;;1.55;1.05;;;20.90;53.50;;;;;;4961628;29;20051;-43
2021/11/21 03:41:57;;;;;;;1.38;0.95;;;20.80;53.60;;;;;;4945089;29;20059;-43
2021/11/21 03:44:23;;;;;;;1.00;0.90;;;20.80;53.80;;;;;;4927796;29;20120;-42
2021/11/21 03:46:49;;;;;;;1.17;0.85;;;20.90;54.00;;;;;;4944359;29;20020;-42
2021/11/21 03:49:15;;;;;;;1.40;0.80;;;20.90;53.90;;;;;;4944740;29;20489;-43
2021/11/21 03:51:42;;;;;;;0.98;0.88;;;20.90;54.00;;;;;;4944471;29;20034;-43
2021/11/21 03:54:08;;;;;;;1.00;0.80;;;20.90;53.70;;;;;;4925525;29;20072;-43
2021/11/21 03:56:34;;;;;;;1.35;0.77;;;20.90;53.70;;;;;;4938765;29;20028;-43
2021/11/21 03:59:00;;;;;;;1.40;0.90;;;20.80;53.70;;;;;;4955487;29;20119;-43
2021/11/21 04:01:26;;;;;;;1.00;0.80;;;20.80;53.90;;;;;;4944577;29;20034;-43
2021/11/21 04:03:52;;;;;;;2.13;0.65;;;20.90;54.00;;;;;;4944773;29;20020;-42
2021/11/21 04:06:18;;;;;;;1.15;0.70;;;20.90;53.90;;;;;;4944102;29;20035;-42
2021/11/21 04:08:45;;;;;;;1.15;0.90;;;20.90;53.90;;;;;;4944621;29;20032;-42
2021/11/21 04:11:11;;;;;;;2.13;0.80;;;20.90;53.80;;;;;;4944843;29;20036;-43
2021/11/21 04:13:37;;;;;;;1.80;0.90;;;20.90;53.70;;;;;;4944716;29;20727;-42
2021/11/21 04:16:03;;;;;;;1.30;1.10;;;20.80;53.70;;;;;;4944518;29;20039;-42
2021/11/21 04:18:29;;;;;;;1.05;0.73;;;20.80;53.90;;;;;;4944327;29;20036;-42
2021/11/21 04:20:56;;;;;;;1.77;0.88;;;20.90;53.90;;;;;;4944420;29;20032;-42
2021/11/21 04:23:22;;;;;;;1.15;0.95;;;20.90;53.90;;;;;;4944585;29;20020;-42
2021/11/21 04:25:48;;;;;;;1.60;0.82;;;20.90;54.60;;;;;;4944331;29;20443;-42
2021/11/21 04:28:14;;;;;;;0.95;0.88;;;20.90;53.70;;;;;;4944675;29;20027;-43
2021/11/21 04:30:40;;;;;;;0.68;0.68;;;20.90;53.80;;;;;;4944665;29;20108;-42
2021/11/21 04:33:06;;;;;;;1.50;1.00;;;20.80;53.70;;;;;;4944456;29;20107;-42
2021/11/21 04:35:33;;;;;;;1.00;0.80;;;20.80;53.90;;;;;;4944152;29;20052;-42
2021/11/21 04:37:59;;;;;;;1.17;1.05;;;20.90;54.00;;;;;;4944519;29;20032;-42
2021/11/21 04:40:25;;;;;;;0.98;0.77;;;20.90;54.00;;;;;;4948183;29;20527;-42
2021/11/21 04:42:51;;;;;;;1.45;0.80;;;20.90;54.00;;;;;;4947919;29;20032;-42
2021/11/21 04:45:17;;;;;;;0.90;0.70;;;20.90;53.80;;;;;;4947969;29;20023;-42
2021/11/21 04:47:43;;;;;;;0.95;0.75;;;20.90;53.70;;;;;;4947448;29;20027;-42
2021/11/21 04:50:10;;;;;;;1.50;1.10;;;20.90;53.80;;;;;;4942621;29;20056;-42
2021/11/21 04:52:37;;;;;;;1.25;0.93;;;20.80;53.70;;;;;;4940050;29;20032;-42
2021/11/21 04:55:03;;;;;;;1.07;0.87;;;20.80;53.90;;;;;;4928727;29;20044;-41
2021/11/21 04:57:29;;;;;;;1.00;0.80;;;20.90;53.90;;;;;;4928678;29;20118;-42
2021/11/21 04:59:56;;;;;;;2.22;0.80;;;20.90;53.80;;;;;;4928777;29;20047;-42
2021/11/21 05:02:22;;;;;;;0.90;0.80;;;20.90;53.80;;;;;;4928903;29;20037;-42
2021/11/21 05:04:48;;;;;;;0.80;0.80;;;20.90;53.70;;;;;;4928675;29;20043;-42
2021/11/21 05:07:14;;;;;;;1.55;1.00;;;20.90;53.60;;;;;;4928234;29;20039;-42
2021/11/21 05:09:41;;;;;;;1.40;0.98;;;20.80;53.60;;;;;;4932217;29;20120;-42
2021/11/21 05:12:08;;;;;;;1.27;0.80;;;20.90;53.80;;;;;;4947702;29;20099;-43
2021/11/21 05:14:34;;;;;;;1.25;0.90;;;20.90;53.80;;;;;;4947037;29;20046;-42
2021/11/21 05:17:00;;;;;;;0.93;0.85;;;20.90;53.70;;;;;;4946937;29;20035;-42
2021/11/21 05:19:26;;;;;;;0.90;0.80;;;21.00;53.70;;;;;;4947084;29;20059;-42
2021/11/21 05:21:52;;;;;;;0.88;0.80;;;20.90;53.50;;;;;;4947094;29;20032;-42
2021/11/21 05:24:23;;;;;;;1.60;0.98;;;20.90;53.40;;;;;;4947356;29;20034;-42
2021/11/21 05:26:51;;;;;;;0.90;0.80;;;20.80;53.50;;;;;;4947000;29;20043;-42
2021/11/21 05:29:18;;;;;;;0.95;0.82;;;20.90;53.80;;;;;;4947300;29;20795;-42
2021/11/21 05:31:44;;;;;;;2.15;0.80;;;20.90;53.70;;;;;;4950298;29;20096;-42
2021/11/21 05:34:10;;;;;;;2.00;0.85;;;21.00;53.70;;;;;;4966308;29;20159;-43
2021/11/21 05:36:36;;;;;;;0.98;0.88;;;21.00;53.70;;;;;;4965970;28;20031;-43
2021/11/21 05:39:03;;;;;;;1.25;1.00;;;20.90;53.40;;;;;;4965753;28;20075;-42
2021/11/21 05:41:29;;;;;;;1.13;1.03;;;20.90;53.40;;;;;;4947927;29;20028;-42
2021/11/21 05:43:55;;;;;;;1.20;1.00;;;20.80;53.50;;;;;;4947025;29;20293;-42
2021/11/21 05:46:21;;;;;;;1.30;0.95;;;20.80;53.60;;;;;;4946953;29;20027;-42
2021/11/21 05:48:47;;;;;;;1.40;1.10;;;20.90;53.80;;;;;;4946323;29;20075;-42
2021/11/21 05:51:13;;;;;;;1.20;1.00;;;20.90;53.70;;;;;;4946419;29;20042;-43
2021/11/21 05:53:39;;;;;;;1.17;0.85;;;20.90;53.70;;;;;;4939143;29;20548;-42
2021/11/21 05:56:06;;;;;;;1.00;0.80;;;20.90;53.50;;;;;;4946983;29;20055;-42
2021/11/21 05:58:33;;;;;;;0.93;0.77;;;20.90;53.40;;;;;;4946749;29;20028;-40
2021/11/21 06:00:59;;;;;;;1.30;1.00;;;20.80;53.40;;;;;;4946665;29;20042;-42
2021/11/21 06:03:25;;;;;;;1.67;1.02;;;20.80;53.70;;;;;;4946175;29;20104;-42
2021/11/21 06:05:51;;;;;;;0.95;0.80;;;20.90;53.60;;;;;;4946223;29;20047;-43
2021/11/21 06:08:17;;;;;;;2.00;1.10;;;21.00;53.70;;;;;;4946298;29;20042;-42
2021/11/21 06:10:45;;;;;;;0.95;0.77;;;21.00;53.70;;;;;;4946385;29;20051;-42
2021/11/21 06:13:11;;;;;;;0.88;0.70;;;20.90;53.50;;;;;;4946432;29;20031;-42
2021/11/21 06:15:37;;;;;;;1.30;1.00;;;20.90;53.40;;;;;;4946191;29;20043;-42
2021/11/21 06:18:04;;;;;;;1.27;1.00;;;20.80;53.40;;;;;;4946065;29;20043;-42
2021/11/21 06:20:30;;;;;;;1.38;0.88;;;20.80;53.70;;;;;;4946017;29;20095;-42
2021/11/21 06:22:56;;;;;;;1.00;0.80;;;20.90;53.80;;;;;;4946211;29;20055;-42
2021/11/21 06:25:22;;;;;;;1.38;0.90;;;20.90;53.70;;;;;;4946325;29;20031;-41
2021/11/21 06:27:48;;;;;;;1.05;0.95;;;21.00;53.80;;;;;;4945964;29;20028;-42
2021/11/21 06:30:14;;;;;;;1.23;0.80;;;20.90;53.50;;;;;;4946257;29;20725;-42
2021/11/21 06:32:41;;;;;;;1.10;0.90;;;20.90;53.60;;;;;;4946060;29;20040;-41
2021/11/21 06:35:07;;;;;;;1.00;0.90;;;20.90;53.60;;;;;;4945924;29;20044;-42
2021/11/21 06:37:33;;;;;;;0.98;0.90;;;20.80;53.50;;;;;;4945556;29;20027;-43
2021/11/21 06:39:59;;;;;;;1.87;0.90;;;20.90;53.70;;;;;;4946074;29;20024;-42
2021/11/21 06:42:25;;;;;;;1.10;0.75;;;20.90;53.70;;;;;;4945822;29;20031;-42
2021/11/21 06:44:52;;;;;;;0.90;0.80;;;21.00;53.80;;;;;;4945975;29;20056;-42
2021/11/21 06:47:18;;;;;;;1.15;0.85;;;21.00;53.70;;;;;;4932642;29;20088;-41
2021/11/21 06:49:45;;;;;;;1.27;1.00;;;20.90;53.50;;;;;;4940575;29;20042;-42
2021/11/21 06:52:13;;;;;;;1.00;0.80;;;20.90;53.40;;;;;;4945443;29;20038;-42
2021/11/21 06:54:38;;;;;;;;;;;20.80;53.50;;;;;;4946187;29;20064;-41
2021/11/21 06:57:05;;;;;;;1.08;0.75;;;20.90;53.70;;;;;;4945752;29;19906;-41
2021/11/21 06:59:31;;;;;;;1.63;0.87;;;20.90;53.70;;;;;;4945832;29;20036;-42
2021/11/21 07:01:57;;;;;;;0.90;0.80;;;20.90;53.70;;;;;;4945216;29;20023;-42
2021/11/21 07:04:23;;;;;;;1.00;0.88;;;21.00;53.70;;;;;;4945551;29;20063;-42
2021/11/21 07:06:49;;;;;;;1.88;1.02;;;20.90;53.50;;;;;;4933961;29;20028;-42
2021/11/21 07:09:16;;;;;;;0.80;0.60;;;20.90;53.40;;;;;;4945164;29;20032;-43
2021/11/21 07:11:44;;;;;;;1.02;0.80;;;20.80;53.50;;;;;;4945018;29;20027;-42
2021/11/21 07:14:11;;;;;;;0.90;0.70;;;20.90;53.70;;;;;;4945281;29;20128;-42
2021/11/21 07:16:38;;;;;;;1.15;0.80;;;20.90;53.70;;;;;;4945392;29;20036;-42
2021/11/21 07:19:04;;;;;;;;;;;21.00;53.70;;;;;;4936434;29;20052;-42
2021/11/21 07:21:31;;;;;;;0.85;0.70;;;21.00;53.70;;;;;;4925902;29;19917;-42
2021/11/21 07:23:57;;;;;;;0.75;0.65;;;20.90;53.50;;;;;;4925836;29;20020;-43
2021/11/21 07:26:23;;;;;;;1.30;0.80;;;20.90;53.40;;;;;;4926319;29;20490;-42
2021/11/21 07:28:49;;;;;;;1.60;0.90;;;20.90;53.50;;;;;;4926138;29;20055;-42
2021/11/21 07:31:16;;;;;;;0.75;0.70;;;20.80;53.60;;;;;;4926161;29;20617;-41
2021/11/21 07:33:42;;;;;;;1.02;0.85;;;20.90;53.70;;;;;;4925788;29;20116;-42
2021/11/21 07:36:08;;;;;;;0.85;0.50;;;20.90;53.70;;;;;;4925839;29;20047;-43
2021/11/21 07:38:34;;;;;;;0.70;0.60;;;21.00;53.70;;;;;;4926046;29;20056;-42
2021/11/21 07:41:01;;;;;;;1.80;0.93;;;21.00;53.60;;;;;;4940131;29;20070;-42
2021/11/21 07:43:27;;;;;;;0.70;0.60;;;20.90;53.30;;;;;;4943197;29;20086;-42
2021/11/21 07:45:54;;;;;;;1.05;0.85;;;20.90;53.40;;;;;;4944975;29;20027;-42
2021/11/21 07:48:20;;;;;;;0.98;0.70;;;20.80;53.40;;;;;;4942308;29;20031;-42
2021/11/21 07:50:47;;;;;;;1.25;0.80;;;20.80;53.60;;;;;;4944792;29;20032;-43
2021/11/21 07:53:13;;;;;;;0.88;0.70;;;20.90;53.70;;;;;;4944549;29;20031;-41
2021/11/21 07:55:39;;;;;;;0.98;0.60;;;21.00;53.70;;;;;;4944889;29;20036;-42
2021/11/21 07:58:05;;;;;;;0.88;0.60;;;21.00;54.30;;;;;;4944756;29;20362;-43
2021/11/21 08:00:31;;;;;;;0.90;0.70;;;21.00;53.50;;;;;;4944654;29;20058;-42
2021/11/21 08:02:57;;;;;;;0.77;0.57;;;20.90;53.40;;;;;;4944419;29;20054;-42
2021/11/21 08:05:24;;;;;;;0.80;0.70;;;20.90;53.40;;;;;;4944697;29;20056;-41
2021/11/21 08:07:50;;;;;;;0.77;0.70;;;20.80;53.40;;;;;;4944558;29;20171;-42
2021/11/21 08:10:16;;;;;;;0.95;0.80;;;20.80;53.60;;;;;;4944527;29;20032;-42
2021/11/21 08:12:42;;;;;;;0.70;0.60;;;20.90;53.70;;;;;;4958319;28;20527;-42
2021/11/21 08:15:09;;;;;;;0.82;0.57;;;21.00;53.70;;;;;;4948624;29;20040;-43
2021/11/21 08:17:35;;;;;;;0.93;0.80;;;21.00;53.80;;;;;;4948336;29;20031;-41
2021/11/21 08:20:02;;;;;;;0.90;0.70;;;20.90;53.50;;;;;;4948148;29;20047;-42
2021/11/21 08:22:28;;;;;;;;;;;20.90;53.50;;;;;;4948839;29;20035;-42
2021/11/21 08:24:54;;;;;;;0.77;0.70;;;20.90;53.60;;;;;;4947977;29;19973;-44
2021/11/21 08:27:20;;;;;;;1.10;0.80;;;20.90;53.60;;;;;;4948709;29;20039;-44
2021/11/21 08:29:46;;;;;;;0.70;0.68;;;20.90;53.80;;;;;;4948277;29;20031;-42
2021/11/21 08:32:13;;;;;;;0.60;0.60;;;20.90;53.80;;;;;;4948100;29;20030;-42
2021/11/21 08:34:39;;;;;;;0.93;0.73;;;21.00;53.90;;;;;;4947981;29;20035;-41
2021/11/21 08:37:05;;;;;;;1.15;0.82;;;21.00;53.90;;;;;;4948014;29;20039;-42
2021/11/21 08:39:31;;;;;;;1.73;0.57;;;20.90;53.50;;;;;;4945474;29;20481;-43
2021/11/21 08:41:57;;;;;;;1.00;0.70;;;20.90;53.60;;;;;;4929094;29;20100;-41
2021/11/21 08:44:24;;;;;;;0.85;0.55;;;20.90;53.70;;;;;;4928684;29;20035;-42
2021/11/21 08:46:50;;;;;;;0.70;0.60;;;20.90;53.80;;;;;;4928971;29;20063;-41
2021/11/21 08:49:16;;;;;;;0.93;0.70;;;21.00;53.90;;;;;;4939533;29;20039;-42
2021/11/21 08:51:45;;;;;;;0.70;0.68;;;21.00;53.80;;;;;;4947528;29;20051;-42
2021/11/21 08:54:12;;;;;;;0.80;0.70;;;21.00;53.90;;;;;;4947679;29;20408;-42
2021/11/21 08:56:38;;;;;;;0.80;0.80;;;21.00;53.70;;;;;;4947837;29;20571;-42
2021/11/21 08:59:04;;;;;;;1.10;0.88;;;20.90;53.50;;;;;;4947582;29;20038;-42
2021/11/21 09:01:30;;;;;;;0.98;0.80;;;20.90;53.70;;;;;;4947513;29;20028;-42
2021/11/21 09:03:57;;;;;;;0.60;0.57;;;20.90;53.80;;;;;;4947609;29;20091;-41
2021/11/21 09:06:23;;;;;;;1.45;0.70;;;20.90;53.80;;;;;;4947231;29;20138;-41
2021/11/21 09:08:49;;;;;;;0.73;0.60;;;21.00;53.90;;;;;;4947752;29;20039;-43
2021/11/21 09:11:15;;;;;;;0.93;0.77;;;21.00;53.90;;;;;;4947571;29;20388;-42
2021/11/21 09:13:41;;;;;;;0.75;0.70;;;21.00;53.80;;;;;;4947103;29;20034;-42
2021/11/21 09:16:08;;;;;;;0.93;0.65;;;20.90;53.70;;;;;;4947042;29;20043;-41
2021/11/21 09:18:35;;;;;;;0.85;0.60;;;20.90;53.70;;;;;;4947381;29;20492;-41
2021/11/21 09:21:01;;;;;;;1.25;0.82;;;20.90;53.70;;;;;;4947350;29;20068;-44
2021/11/21 09:23:27;;;;;;;0.70;0.70;;;20.80;53.70;;;;;;4947162;29;20027;-42
2021/11/21 09:25:53;;;;;;;0.82;0.60;;;20.90;53.90;;;;;;4946821;29;20038;-42
2021/11/21 09:28:24;;;;;;;0.65;0.60;;;20.90;53.90;;;;;;4947234;29;20571;-43
2021/11/21 09:30:51;;;;;;;0.82;0.65;;;21.00;54.00;;;;;;4947363;29;20054;-43
2021/11/21 09:33:17;;;;;;;1.08;0.90;;;21.00;53.80;;;;;;4947256;29;20028;-43
2021/11/21 09:35:45;;;;;;;0.82;0.75;;;20.90;53.70;;;;;;4946661;29;20572;-42
2021/11/21 09:38:11;;;;;;;0.52;0.52;;;20.90;53.70;;;;;;4946983;29;20047;-42
2021/11/21 09:40:37;;;;;;;0.68;0.60;;;20.80;53.70;;;;;;4937963;29;20028;-43
2021/11/21 09:43:04;;;;;;;1.55;0.90;;;20.80;53.90;;;;;;4946752;29;20035;-43
2021/11/21 09:45:30;;;;;;;0.80;0.70;;;20.90;54.00;;;;;;4946429;29;20078;-42
2021/11/21 09:47:57;;;;;;;0.70;0.60;;;21.00;54.00;;;;;;4946834;29;20051;-42
2021/11/21 09:50:23;;;;;;;1.08;0.70;;;20.90;54.00;;;;;;4927864;29;20037;-44
2021/11/21 09:52:50;;;;;;;0.75;0.75;;;20.90;53.80;;;;;;4926725;29;20063;-42
2021/11/21 09:55:16;;;;;;;0.80;0.70;;;20.90;53.70;;;;;;4925810;29;20143;-43
2021/11/21 09:57:43;;;;;;;0.80;0.70;;;20.80;53.70;;;;;;4926986;29;20028;-41
2021/11/21 10:00:12;;;;;;;0.77;0.67;;;20.80;53.80;;;;;;4927565;29;20036;-42
2021/11/21 10:02:48;;;;;;;0.73;0.65;;;20.80;54.00;;;;;;4927367;29;20105;-43
2021/11/21 10:05:21;;;;;;;0.70;0.65;;;20.90;54.10;;;;;;4927152;29;20113;-44
2021/11/21 10:07:48;;;;;;;1.10;0.77;;;21.00;54.10;;;;;;4927082;29;20036;-42
2021/11/21 10:10:17;;;;;;;2.15;0.80;;;20.90;53.90;;;;;;4935721;29;20039;-42
2021/11/21 10:12:43;;;;;;;1.20;0.70;;;20.90;53.80;;;;;;4945004;29;20034;-42
2021/11/21 10:15:16;;;;;;;0.80;0.60;;;20.90;53.90;;;;;;4945688;29;20043;-42
2021/11/21 10:17:47;;;;;;;1.02;0.75;;;20.80;53.80;;;;;;4946250;29;20075;-42
2021/11/21 10:20:20;;;;;;;1.00;0.70;;;20.90;54.10;;;;;;4907799;29;20071;-42
2021/11/21 10:22:47;;;;;;;0.57;0.55;;;20.90;54.10;;;;;;4907859;29;20024;-41
2021/11/21 10:25:14;;;;;;;1.25;0.70;;;21.00;54.10;;;;;;4908045;29;20044;-42
2021/11/21 10:27:41;;;;;;;0.88;0.60;;;21.00;54.10;;;;;;4907755;29;20067;-42
2021/11/21 10:30:08;;;;;;;;;;;20.90;53.80;;;;;;4908182;29;20041;-44
2021/11/21 10:32:34;;;;;;;0.98;0.88;;;20.90;53.80;;;;;;4908270;29;19919;-45
2021/11/21 10:35:02;;;;;;;0.82;0.65;;;20.80;53.80;;;;;;4907525;29;20041;-42
2021/11/21 10:37:46;;;;;;;1.40;0.70;;;20.80;54.00;;;;;;4906791;29;20032;-42
2021/11/21 10:40:15;;;;;;;1.15;0.80;;;20.90;54.10;;;;;;4900146;29;20037;-44
2021/11/21 10:42:42;;;;;;;0.90;0.70;;;20.90;54.00;;;;;;4888793;29;20737;-42
2021/11/21 10:45:10;;;;;;;0.73;0.63;;;20.90;54.00;;;;;;4888416;29;20032;-42
2021/11/21 10:47:46;;;;;;;1.23;0.70;;;20.90;53.80;;;;;;4889095;29;20033;-42
2021/11/21 10:50:27;;;;;;;0.98;0.77;;;20.90;53.80;;;;;;4906344;29;20611;-42
2021/11/21 10:52:53;;;;;;;0.93;0.60;;;20.80;53.80;;;;;;4905957;29;20028;-42
2021/11/21 10:55:19;;;;;;;0.75;0.70;;;20.80;54.00;;;;;;4907379;29;20044;-44
2021/11/21 10:57:45;;;;;;;1.17;0.85;;;20.90;54.10;;;;;;4907232;29;20033;-41
2021/11/21 11:00:16;;;;;;;1.63;0.80;;;20.90;54.10;;;;;;4906954;29;20068;-42
2021/11/21 11:02:42;;;;;;;1.08;0.77;;;20.90;53.90;;;;;;4907624;29;20040;-43
2021/11/21 11:05:13;;;;;;;0.63;0.60;;;20.90;53.80;;;;;;4912104;29;20039;-43
2021/11/21 11:07:42;;;;;;;0.90;0.80;;;20.90;53.80;;;;;;4925862;29;20064;-42
2021/11/21 11:10:16;;;;;;;1.10;0.80;;;20.80;53.80;;;;;;4902268;29;20037;-42
2021/11/21 11:12:50;;;;;;;0.77;0.70;;;20.80;54.50;;;;;;4908591;29;20030;-42
2021/11/21 11:15:16;;;;;;;0.80;0.80;;;20.90;54.00;;;;;;4906555;29;20037;-42
2021/11/21 11:17:42;;;;;;;1.10;0.80;;;20.90;53.90;;;;;;4907264;29;20084;-41
2021/11/21 11:20:11;;;;;;;0.70;0.60;;;21.00;54.00;;;;;;4907968;29;20089;-43
2021/11/21 11:22:39;;;;;;;0.80;0.75;;;20.90;53.70;;;;;;4906786;29;20106;-42
2021/11/21 11:25:13;;;;;;;1.73;0.90;;;20.90;53.70;;;;;;4907202;29;20055;-42
2021/11/21 11:27:49;;;;;;;1.08;0.80;;;20.80;53.70;;;;;;4906914;29;20033;-41
2021/11/21 11:30:18;;;;;;;1.17;0.80;;;20.80;53.80;;;;;;4886978;29;20053;-42
2021/11/21 11:32:44;;;;;;;1.00;0.70;;;20.90;54.00;;;;;;4904364;29;20032;-42
2021/11/21 11:35:19;;;;;;;1.10;0.80;;;20.90;54.00;;;;;;4907035;29;20101;-42
2021/11/21 11:37:47;;;;;;;1.00;0.80;;;20.90;54.00;;;;;;4906359;29;20171;-42
2021/11/21 11:40:28;;;;;;;0.82;0.70;;;20.90;53.80;;;;;;4906493;29;20037;-42
2021/11/21 11:43:14;;;;;;;0.80;0.70;;;20.90;53.80;;;;;;4906776;29;20112;-42
2021/11/21 11:45:51;;;;;;;1.40;0.88;;;20.80;53.70;;;;;;4888136;29;20121;-42
2021/11/21 11:48:35;;;;;;;1.80;1.08;;;20.80;54.00;;;;;;4906411;29;20098;-42
2021/11/21 11:51:23;;;;;;;1.05;0.80;;;20.90;54.10;;;;;;4906695;29;20037;-44
2021/11/21 11:53:53;;;;;;;1.57;1.10;;;20.90;54.00;;;;;;4904966;29;20032;-41
2021/11/21 11:56:24;;;;;;;0.82;0.80;;;20.90;54.00;;;;;;4906152;29;20279;-43
2021/11/21 11:59:03;;;;;;;1.27;0.88;;;20.90;53.80;;;;;;4906380;29;20040;-42
2021/11/21 12:01:38;;;;;;;1.13;0.80;;;20.90;53.80;;;;;;4890346;29;20451;-42
2021/11/21 12:04:30;;;;;;;1.35;0.98;;;20.80;53.90;;;;;;4887789;29;20039;-42
2021/11/21 12:07:07;;;;;;;1.48;1.10;;;20.90;54.00;;;;;;4886950;29;20092;-42
2021/11/21 12:09:34;;;;;;;1.23;0.90;;;20.90;54.00;;;;;;4890430;29;20040;-42
2021/11/21 12:12:08;;;;;;;1.30;1.20;;;20.90;54.10;;;;;;4906281;29;20486;-43
2021/11/21 12:14:42;;;;;;;1.17;0.90;;;20.90;53.90;;;;;;4906240;29;20056;-43
2021/11/21 12:17:15;;;;;;;1.55;1.00;;;20.90;53.80;;;;;;4905732;29;20028;-42
2021/11/21 12:19:45;;;;;;;0.93;0.85;;;20.80;53.80;;;;;;4921297;29;20067;-42
2021/11/21 12:22:37;;;;;;;1.15;1.00;;;20.80;53.80;;;;;;4924809;29;20032;-42
2021/11/21 12:25:11;;;;;;;1.42;1.20;;;20.90;54.00;;;;;;4925124;29;20099;-41
2021/11/21 12:27:41;;;;;;;1.20;1.10;;;20.90;54.10;;;;;;4923840;29;20030;-43
2021/11/21 12:30:08;;;;;;;1.00;0.90;;;20.90;54.10;;;;;;4925075;29;20035;-42
2021/11/21 12:32:34;;;;;;;;;;;20.90;53.90;;;;;;4925545;29;20521;-42
2021/11/21 12:35:02;;;;;;;1.00;0.90;;;20.90;53.90;;;;;;4924006;29;19919;-41
2021/11/21 12:37:38;;;;;;;2.45;0.90;;;20.90;53.90;;;;;;4932116;29;20039;-42
2021/11/21 12:40:07;;;;;;;1.88;1.23;;;20.80;54.00;;;;;;4920125;29;20055;-43
2021/11/21 12:42:34;;;;;;;1.48;1.30;;;20.90;54.00;;;;;;4925331;29;20032;-42
2021/11/21 12:45:18;;;;;;;1.13;1.02;;;20.90;54.00;;;;;;4925137;29;20111;-42
2021/11/21 12:47:49;;;;;;;1.55;1.15;;;21.00;54.00;;;;;;4924631;29;20042;-43
2021/11/21 12:50:25;;;;;;;1.10;1.00;;;20.90;53.80;;;;;;4924877;29;20032;-42